sensor_id;sensor_type;location;lat;lon;timestamp;P1;durP1;ratioP1;P2;durP2;ratioP2
29358;SDS011;16347;53.232;6.556;2023-07-22T00:00:46;10.77;;;5.10;;
29358;SDS011;16347;53.232;6.556;2023-07-22T00:03:14;14.25;;;4.95;;
29358;SDS011;16347;53.232;6.556;2023-07-22T00:05:42;14.30;;;4.78;;
29358;SDS011;16347;53.232;6.556;2023-07-22T00:08:10;11.98;;;4.65;;
29358;SDS011;16347;53.232;6.556;2023-07-22T00:10:40;13.40;;;4.80;;
29358;SDS011;16347;53.232;6.556;2023-07-22T00:13:10;8.13;;;4.40;;
29358;SDS011;16347;53.232;6.556;2023-07-22T00:15:38;9.93;;;4.90;;
29358;SDS011;16347;53.232;6.556;2023-07-22T00:18:05;9.52;;;4.55;;
29358;SDS011;16347;53.232;6.556;2023-07-22T00:20:33;13.07;;;4.10;;
29358;SDS011;16347;53.232;6.556;2023-07-22T00:23:02;10.52;;;4.38;;
29358;SDS011;16347;53.232;6.556;2023-07-22T00:25:30;13.23;;;4.50;;
29358;SDS011;16347;53.232;6.556;2023-07-22T00:27:58;10.48;;;4.25;;
29358;SDS011;16347;53.232;6.556;2023-07-22T00:30:27;15.75;;;4.35;;
29358;SDS011;16347;53.232;6.556;2023-07-22T00:32:55;8.10;;;3.90;;
29358;SDS011;16347;53.232;6.556;2023-07-22T00:35:23;8.23;;;3.90;;
29358;SDS011;16347;53.232;6.556;2023-07-22T00:37:51;7.55;;;4.00;;
29358;SDS011;16347;53.232;6.556;2023-07-22T00:40:19;8.82;;;3.50;;
29358;SDS011;16347;53.232;6.556;2023-07-22T00:42:49;9.75;;;4.22;;
29358;SDS011;16347;53.232;6.556;2023-07-22T00:45:17;8.30;;;3.53;;
29358;SDS011;16347;53.232;6.556;2023-07-22T00:47:46;10.13;;;3.88;;
29358;SDS011;16347;53.232;6.556;2023-07-22T00:50:15;8.48;;;3.58;;
29358;SDS011;16347;53.232;6.556;2023-07-22T00:52:44;13.40;;;3.88;;
29358;SDS011;16347;53.232;6.556;2023-07-22T00:55:12;9.30;;;3.95;;
29358;SDS011;16347;53.232;6.556;2023-07-22T00:57:40;8.50;;;4.20;;
29358;SDS011;16347;53.232;6.556;2023-07-22T01:00:09;9.13;;;4.07;;
29358;SDS011;16347;53.232;6.556;2023-07-22T01:02:38;7.75;;;3.70;;
29358;SDS011;16347;53.232;6.556;2023-07-22T01:05:09;11.40;;;4.22;;
29358;SDS011;16347;53.232;6.556;2023-07-22T01:07:37;7.40;;;3.60;;
29358;SDS011;16347;53.232;6.556;2023-07-22T01:10:06;6.97;;;3.97;;
29358;SDS011;16347;53.232;6.556;2023-07-22T01:12:36;11.43;;;4.50;;
29358;SDS011;16347;53.232;6.556;2023-07-22T01:15:05;9.20;;;4.10;;
29358;SDS011;16347;53.232;6.556;2023-07-22T01:17:36;11.32;;;4.85;;
29358;SDS011;16347;53.232;6.556;2023-07-22T01:20:05;11.35;;;4.70;;
29358;SDS011;16347;53.232;6.556;2023-07-22T01:22:37;15.40;;;5.68;;
29358;SDS011;16347;53.232;6.556;2023-07-22T01:25:08;9.88;;;5.32;;
29358;SDS011;16347;53.232;6.556;2023-07-22T01:27:36;15.88;;;5.97;;
29358;SDS011;16347;53.232;6.556;2023-07-22T01:30:05;15.73;;;5.75;;
29358;SDS011;16347;53.232;6.556;2023-07-22T01:32:36;11.82;;;5.43;;
29358;SDS011;16347;53.232;6.556;2023-07-22T01:35:05;18.05;;;6.13;;
29358;SDS011;16347;53.232;6.556;2023-07-22T01:37:34;10.70;;;4.85;;
29358;SDS011;16347;53.232;6.556;2023-07-22T01:40:02;10.15;;;4.70;;
29358;SDS011;16347;53.232;6.556;2023-07-22T01:42:39;14.52;;;5.03;;
29358;SDS011;16347;53.232;6.556;2023-07-22T01:45:08;8.13;;;4.75;;
29358;SDS011;16347;53.232;6.556;2023-07-22T01:47:37;10.25;;;5.25;;
29358;SDS011;16347;53.232;6.556;2023-07-22T01:50:07;9.57;;;4.65;;
29358;SDS011;16347;53.232;6.556;2023-07-22T01:52:36;13.85;;;4.57;;
29358;SDS011;16347;53.232;6.556;2023-07-22T01:55:04;11.05;;;5.28;;
29358;SDS011;16347;53.232;6.556;2023-07-22T01:57:35;8.38;;;3.90;;
29358;SDS011;16347;53.232;6.556;2023-07-22T02:00:05;7.65;;;4.65;;
29358;SDS011;16347;53.232;6.556;2023-07-22T02:02:43;10.32;;;4.50;;
29358;SDS011;16347;53.232;6.556;2023-07-22T02:05:11;13.55;;;4.97;;
29358;SDS011;16347;53.232;6.556;2023-07-22T02:07:39;10.98;;;5.32;;
29358;SDS011;16347;53.232;6.556;2023-07-22T02:10:07;9.25;;;4.60;;
29358;SDS011;16347;53.232;6.556;2023-07-22T02:12:36;12.48;;;4.65;;
29358;SDS011;16347;53.232;6.556;2023-07-22T02:15:07;10.10;;;4.85;;
29358;SDS011;16347;53.232;6.556;2023-07-22T02:17:36;9.75;;;3.92;;
29358;SDS011;16347;53.232;6.556;2023-07-22T02:20:04;10.60;;;4.95;;
29358;SDS011;16347;53.232;6.556;2023-07-22T02:22:35;12.38;;;4.25;;
29358;SDS011;16347;53.232;6.556;2023-07-22T02:25:03;8.90;;;4.78;;
29358;SDS011;16347;53.232;6.556;2023-07-22T02:27:31;8.57;;;4.43;;
29358;SDS011;16347;53.232;6.556;2023-07-22T02:30:00;8.57;;;3.90;;
29358;SDS011;16347;53.232;6.556;2023-07-22T02:32:31;10.68;;;5.13;;
29358;SDS011;16347;53.232;6.556;2023-07-22T02:34:59;7.18;;;4.38;;
29358;SDS011;16347;53.232;6.556;2023-07-22T02:37:27;8.70;;;4.35;;
29358;SDS011;16347;53.232;6.556;2023-07-22T02:39:55;12.25;;;4.05;;
29358;SDS011;16347;53.232;6.556;2023-07-22T02:42:23;10.38;;;4.32;;
29358;SDS011;16347;53.232;6.556;2023-07-22T02:44:51;13.10;;;3.83;;
29358;SDS011;16347;53.232;6.556;2023-07-22T02:47:19;7.68;;;3.67;;
29358;SDS011;16347;53.232;6.556;2023-07-22T02:49:48;12.52;;;4.82;;
29358;SDS011;16347;53.232;6.556;2023-07-22T02:52:16;9.63;;;4.05;;
29358;SDS011;16347;53.232;6.556;2023-07-22T02:54:54;10.25;;;4.20;;
29358;SDS011;16347;53.232;6.556;2023-07-22T02:57:32;11.85;;;4.78;;
29358;SDS011;16347;53.232;6.556;2023-07-22T03:00:00;8.82;;;4.07;;
29358;SDS011;16347;53.232;6.556;2023-07-22T03:02:33;9.90;;;4.15;;
29358;SDS011;16347;53.232;6.556;2023-07-22T03:05:03;11.10;;;3.55;;
29358;SDS011;16347;53.232;6.556;2023-07-22T03:07:34;9.32;;;4.43;;
29358;SDS011;16347;53.232;6.556;2023-07-22T03:10:02;7.47;;;3.63;;
29358;SDS011;16347;53.232;6.556;2023-07-22T03:12:31;11.82;;;3.35;;
29358;SDS011;16347;53.232;6.556;2023-07-22T03:14:59;12.05;;;3.92;;
29358;SDS011;16347;53.232;6.556;2023-07-22T03:17:27;8.07;;;3.58;;
29358;SDS011;16347;53.232;6.556;2023-07-22T03:19:56;9.35;;;4.10;;
29358;SDS011;16347;53.232;6.556;2023-07-22T03:22:25;6.68;;;3.72;;
29358;SDS011;16347;53.232;6.556;2023-07-22T03:24:53;7.22;;;4.13;;
29358;SDS011;16347;53.232;6.556;2023-07-22T03:27:21;7.18;;;3.35;;
29358;SDS011;16347;53.232;6.556;2023-07-22T03:29:48;8.70;;;3.70;;
29358;SDS011;16347;53.232;6.556;2023-07-22T03:32:17;7.22;;;3.95;;
29358;SDS011;16347;53.232;6.556;2023-07-22T03:34:45;8.88;;;4.65;;
29358;SDS011;16347;53.232;6.556;2023-07-22T03:37:12;14.70;;;4.57;;
29358;SDS011;16347;53.232;6.556;2023-07-22T03:39:42;8.57;;;4.65;;
29358;SDS011;16347;53.232;6.556;2023-07-22T03:42:10;8.73;;;4.32;;
29358;SDS011;16347;53.232;6.556;2023-07-22T03:44:38;8.02;;;4.10;;
29358;SDS011;16347;53.232;6.556;2023-07-22T03:47:07;11.02;;;5.05;;
29358;SDS011;16347;53.232;6.556;2023-07-22T03:49:35;19.60;;;4.63;;
29358;SDS011;16347;53.232;6.556;2023-07-22T03:52:03;8.32;;;4.70;;
29358;SDS011;16347;53.232;6.556;2023-07-22T03:54:31;13.35;;;5.13;;
29358;SDS011;16347;53.232;6.556;2023-07-22T03:57:00;10.68;;;4.60;;
29358;SDS011;16347;53.232;6.556;2023-07-22T03:59:28;9.30;;;4.53;;
29358;SDS011;16347;53.232;6.556;2023-07-22T04:01:56;12.32;;;4.88;;
29358;SDS011;16347;53.232;6.556;2023-07-22T04:04:24;7.90;;;4.03;;
29358;SDS011;16347;53.232;6.556;2023-07-22T04:06:52;13.88;;;5.03;;
29358;SDS011;16347;53.232;6.556;2023-07-22T04:09:20;15.02;;;4.40;;
29358;SDS011;16347;53.232;6.556;2023-07-22T04:11:48;9.02;;;3.90;;
29358;SDS011;16347;53.232;6.556;2023-07-22T04:14:17;8.82;;;4.22;;
29358;SDS011;16347;53.232;6.556;2023-07-22T04:16:45;9.30;;;3.83;;
29358;SDS011;16347;53.232;6.556;2023-07-22T04:19:15;11.85;;;3.88;;
29358;SDS011;16347;53.232;6.556;2023-07-22T04:21:43;9.63;;;4.50;;
29358;SDS011;16347;53.232;6.556;2023-07-22T04:24:11;10.60;;;4.50;;
29358;SDS011;16347;53.232;6.556;2023-07-22T04:26:40;11.95;;;4.18;;
29358;SDS011;16347;53.232;6.556;2023-07-22T04:29:08;10.43;;;4.43;;
29358;SDS011;16347;53.232;6.556;2023-07-22T04:31:39;10.05;;;4.30;;
29358;SDS011;16347;53.232;6.556;2023-07-22T04:34:06;8.25;;;4.07;;
29358;SDS011;16347;53.232;6.556;2023-07-22T04:36:35;10.38;;;4.00;;
29358;SDS011;16347;53.232;6.556;2023-07-22T04:39:03;14.45;;;4.45;;
29358;SDS011;16347;53.232;6.556;2023-07-22T04:41:32;9.88;;;4.22;;
29358;SDS011;16347;53.232;6.556;2023-07-22T04:44:00;9.77;;;3.92;;
29358;SDS011;16347;53.232;6.556;2023-07-22T04:46:28;8.38;;;4.05;;
29358;SDS011;16347;53.232;6.556;2023-07-22T04:48:58;9.00;;;4.00;;
29358;SDS011;16347;53.232;6.556;2023-07-22T04:51:26;9.75;;;4.20;;
29358;SDS011;16347;53.232;6.556;2023-07-22T04:53:54;11.50;;;4.60;;
29358;SDS011;16347;53.232;6.556;2023-07-22T04:56:21;12.10;;;5.30;;
29358;SDS011;16347;53.232;6.556;2023-07-22T04:58:50;12.82;;;4.85;;
29358;SDS011;16347;53.232;6.556;2023-07-22T05:01:17;13.23;;;4.72;;
29358;SDS011;16347;53.232;6.556;2023-07-22T05:03:45;10.15;;;5.30;;
29358;SDS011;16347;53.232;6.556;2023-07-22T05:06:15;13.27;;;5.68;;
29358;SDS011;16347;53.232;6.556;2023-07-22T05:08:43;12.70;;;5.07;;
29358;SDS011;16347;53.232;6.556;2023-07-22T05:11:11;13.27;;;5.57;;
29358;SDS011;16347;53.232;6.556;2023-07-22T05:13:38;11.70;;;5.90;;
29358;SDS011;16347;53.232;6.556;2023-07-22T05:16:06;15.23;;;6.40;;
29358;SDS011;16347;53.232;6.556;2023-07-22T05:18:34;15.05;;;5.20;;
29358;SDS011;16347;53.232;6.556;2023-07-22T05:21:03;10.40;;;6.05;;
29358;SDS011;16347;53.232;6.556;2023-07-22T05:23:33;12.98;;;6.57;;
29358;SDS011;16347;53.232;6.556;2023-07-22T05:26:01;10.35;;;5.50;;
29358;SDS011;16347;53.232;6.556;2023-07-22T05:28:29;11.63;;;5.75;;
29358;SDS011;16347;53.232;6.556;2023-07-22T05:30:58;10.90;;;5.70;;
29358;SDS011;16347;53.232;6.556;2023-07-22T05:33:26;19.02;;;6.32;;
29358;SDS011;16347;53.232;6.556;2023-07-22T05:35:54;15.45;;;6.78;;
29358;SDS011;16347;53.232;6.556;2023-07-22T05:38:21;12.68;;;6.05;;
29358;SDS011;16347;53.232;6.556;2023-07-22T05:40:51;11.82;;;6.20;;
29358;SDS011;16347;53.232;6.556;2023-07-22T05:43:19;16.85;;;7.10;;
29358;SDS011;16347;53.232;6.556;2023-07-22T05:45:47;12.25;;;6.50;;
29358;SDS011;16347;53.232;6.556;2023-07-22T05:48:15;17.67;;;5.97;;
29358;SDS011;16347;53.232;6.556;2023-07-22T05:50:43;14.25;;;7.03;;
29358;SDS011;16347;53.232;6.556;2023-07-22T05:53:11;18.05;;;7.35;;
29358;SDS011;16347;53.232;6.556;2023-07-22T05:55:39;12.40;;;6.55;;
29358;SDS011;16347;53.232;6.556;2023-07-22T05:58:10;15.35;;;7.57;;
29358;SDS011;16347;53.232;6.556;2023-07-22T06:00:44;12.18;;;5.90;;
29358;SDS011;16347;53.232;6.556;2023-07-22T06:03:12;15.88;;;7.10;;
29358;SDS011;16347;53.232;6.556;2023-07-22T06:05:40;17.77;;;6.72;;
29358;SDS011;16347;53.232;6.556;2023-07-22T06:08:08;11.38;;;6.55;;
29358;SDS011;16347;53.232;6.556;2023-07-22T06:10:36;15.20;;;7.20;;
29358;SDS011;16347;53.232;6.556;2023-07-22T06:13:04;16.02;;;6.82;;
29358;SDS011;16347;53.232;6.556;2023-07-22T06:15:34;13.98;;;6.95;;
29358;SDS011;16347;53.232;6.556;2023-07-22T06:18:02;13.25;;;7.18;;
29358;SDS011;16347;53.232;6.556;2023-07-22T06:20:34;12.88;;;7.13;;
29358;SDS011;16347;53.232;6.556;2023-07-22T06:23:02;16.38;;;7.13;;
29358;SDS011;16347;53.232;6.556;2023-07-22T06:25:30;14.10;;;7.18;;
29358;SDS011;16347;53.232;6.556;2023-07-22T06:27:58;13.60;;;7.13;;
29358;SDS011;16347;53.232;6.556;2023-07-22T06:30:26;17.80;;;8.48;;
29358;SDS011;16347;53.232;6.556;2023-07-22T06:32:55;13.18;;;7.15;;
29358;SDS011;16347;53.232;6.556;2023-07-22T06:35:23;14.93;;;7.43;;
29358;SDS011;16347;53.232;6.556;2023-07-22T06:37:51;11.90;;;7.05;;
29358;SDS011;16347;53.232;6.556;2023-07-22T06:40:19;17.08;;;8.25;;
29358;SDS011;16347;53.232;6.556;2023-07-22T06:42:47;19.08;;;9.40;;
29358;SDS011;16347;53.232;6.556;2023-07-22T06:45:15;19.30;;;8.05;;
29358;SDS011;16347;53.232;6.556;2023-07-22T06:47:43;17.13;;;7.90;;
29358;SDS011;16347;53.232;6.556;2023-07-22T06:50:13;15.82;;;7.80;;
29358;SDS011;16347;53.232;6.556;2023-07-22T06:52:40;16.63;;;8.55;;
29358;SDS011;16347;53.232;6.556;2023-07-22T06:55:08;21.35;;;8.18;;
29358;SDS011;16347;53.232;6.556;2023-07-22T06:57:37;15.20;;;8.88;;
29358;SDS011;16347;53.232;6.556;2023-07-22T07:00:05;17.70;;;8.90;;
29358;SDS011;16347;53.232;6.556;2023-07-22T07:02:36;16.50;;;9.40;;
29358;SDS011;16347;53.232;6.556;2023-07-22T07:05:04;15.63;;;8.60;;
29358;SDS011;16347;53.232;6.556;2023-07-22T07:07:35;20.83;;;8.43;;
29358;SDS011;16347;53.232;6.556;2023-07-22T07:10:03;21.45;;;10.00;;
29358;SDS011;16347;53.232;6.556;2023-07-22T07:12:32;20.85;;;9.60;;
29358;SDS011;16347;53.232;6.556;2023-07-22T07:15:00;18.33;;;8.50;;
29358;SDS011;16347;53.232;6.556;2023-07-22T07:17:28;22.85;;;9.50;;
29358;SDS011;16347;53.232;6.556;2023-07-22T07:19:56;16.25;;;8.07;;
29358;SDS011;16347;53.232;6.556;2023-07-22T07:22:24;13.95;;;7.72;;
29358;SDS011;16347;53.232;6.556;2023-07-22T07:24:53;15.23;;;8.32;;
29358;SDS011;16347;53.232;6.556;2023-07-22T07:27:21;16.80;;;8.90;;
29358;SDS011;16347;53.232;6.556;2023-07-22T07:29:49;24.50;;;9.07;;
29358;SDS011;16347;53.232;6.556;2023-07-22T07:32:20;17.15;;;8.85;;
29358;SDS011;16347;53.232;6.556;2023-07-22T07:34:49;16.38;;;8.93;;
29358;SDS011;16347;53.232;6.556;2023-07-22T07:37:18;16.42;;;8.40;;
29358;SDS011;16347;53.232;6.556;2023-07-22T07:39:45;16.50;;;8.73;;
29358;SDS011;16347;53.232;6.556;2023-07-22T07:42:14;17.67;;;8.88;;
29358;SDS011;16347;53.232;6.556;2023-07-22T07:44:42;18.35;;;9.15;;
29358;SDS011;16347;53.232;6.556;2023-07-22T07:47:10;16.13;;;8.80;;
29358;SDS011;16347;53.232;6.556;2023-07-22T07:49:38;15.00;;;8.35;;
29358;SDS011;16347;53.232;6.556;2023-07-22T07:52:06;19.67;;;8.82;;
29358;SDS011;16347;53.232;6.556;2023-07-22T07:54:34;14.90;;;8.30;;
29358;SDS011;16347;53.232;6.556;2023-07-22T07:57:02;17.63;;;9.00;;
29358;SDS011;16347;53.232;6.556;2023-07-22T07:59:32;17.15;;;8.25;;
29358;SDS011;16347;53.232;6.556;2023-07-22T08:02:03;15.70;;;8.30;;
29358;SDS011;16347;53.232;6.556;2023-07-22T08:04:35;25.88;;;10.00;;
29358;SDS011;16347;53.232;6.556;2023-07-22T08:07:05;16.23;;;9.00;;
29358;SDS011;16347;53.232;6.556;2023-07-22T08:09:34;13.77;;;8.43;;
29358;SDS011;16347;53.232;6.556;2023-07-22T08:12:02;17.67;;;9.43;;
29358;SDS011;16347;53.232;6.556;2023-07-22T08:14:30;16.63;;;8.70;;
29358;SDS011;16347;53.232;6.556;2023-07-22T08:17:00;15.70;;;8.77;;
29358;SDS011;16347;53.232;6.556;2023-07-22T08:19:28;14.70;;;8.23;;
29358;SDS011;16347;53.232;6.556;2023-07-22T08:21:57;16.90;;;8.25;;
29358;SDS011;16347;53.232;6.556;2023-07-22T08:24:25;16.17;;;8.35;;
29358;SDS011;16347;53.232;6.556;2023-07-22T08:26:53;17.48;;;8.20;;
29358;SDS011;16347;53.232;6.556;2023-07-22T08:29:22;17.45;;;7.68;;
29358;SDS011;16347;53.232;6.556;2023-07-22T08:31:50;15.60;;;8.55;;
29358;SDS011;16347;53.232;6.556;2023-07-22T08:34:19;17.20;;;8.13;;
29358;SDS011;16347;53.232;6.556;2023-07-22T08:36:47;15.88;;;8.23;;
29358;SDS011;16347;53.232;6.556;2023-07-22T08:39:15;12.18;;;6.88;;
29358;SDS011;16347;53.232;6.556;2023-07-22T08:41:44;15.75;;;7.20;;
29358;SDS011;16347;53.232;6.556;2023-07-22T08:44:18;13.57;;;6.95;;
29358;SDS011;16347;53.232;6.556;2023-07-22T08:46:50;11.82;;;6.45;;
29358;SDS011;16347;53.232;6.556;2023-07-22T08:49:25;13.65;;;6.63;;
29358;SDS011;16347;53.232;6.556;2023-07-22T08:51:54;11.65;;;6.40;;
29358;SDS011;16347;53.232;6.556;2023-07-22T08:54:24;12.50;;;6.85;;
29358;SDS011;16347;53.232;6.556;2023-07-22T08:56:52;13.02;;;6.15;;
29358;SDS011;16347;53.232;6.556;2023-07-22T08:59:21;10.80;;;5.75;;
29358;SDS011;16347;53.232;6.556;2023-07-22T09:01:49;13.55;;;6.53;;
29358;SDS011;16347;53.232;6.556;2023-07-22T09:04:18;9.30;;;5.90;;
29358;SDS011;16347;53.232;6.556;2023-07-22T09:06:48;13.65;;;6.32;;
29358;SDS011;16347;53.232;6.556;2023-07-22T09:09:16;10.63;;;5.78;;
29358;SDS011;16347;53.232;6.556;2023-07-22T09:11:45;8.00;;;4.88;;
29358;SDS011;16347;53.232;6.556;2023-07-22T09:14:14;9.77;;;5.50;;
29358;SDS011;16347;53.232;6.556;2023-07-22T09:17:01;7.82;;;4.72;;
29358;SDS011;16347;53.232;6.556;2023-07-22T09:19:29;9.13;;;5.43;;
29358;SDS011;16347;53.232;6.556;2023-07-22T09:21:58;9.32;;;5.55;;
29358;SDS011;16347;53.232;6.556;2023-07-22T09:24:27;8.30;;;5.20;;
29358;SDS011;16347;53.232;6.556;2023-07-22T09:26:57;9.18;;;5.47;;
29358;SDS011;16347;53.232;6.556;2023-07-22T09:29:33;10.02;;;5.70;;
29358;SDS011;16347;53.232;6.556;2023-07-22T09:32:02;9.40;;;5.60;;
29358;SDS011;16347;53.232;6.556;2023-07-22T09:34:30;11.77;;;6.20;;
29358;SDS011;16347;53.232;6.556;2023-07-22T09:36:59;13.52;;;7.25;;
29358;SDS011;16347;53.232;6.556;2023-07-22T09:39:28;14.05;;;6.82;;
29358;SDS011;16347;53.232;6.556;2023-07-22T09:41:55;19.35;;;7.63;;
29358;SDS011;16347;53.232;6.556;2023-07-22T09:44:28;23.98;;;8.85;;
29358;SDS011;16347;53.232;6.556;2023-07-22T09:46:57;15.05;;;8.35;;
29358;SDS011;16347;53.232;6.556;2023-07-22T09:49:25;22.30;;;9.70;;
29358;SDS011;16347;53.232;6.556;2023-07-22T09:51:54;20.83;;;9.93;;
29358;SDS011;16347;53.232;6.556;2023-07-22T09:54:30;19.02;;;8.35;;
29358;SDS011;16347;53.232;6.556;2023-07-22T09:56:58;18.67;;;9.90;;
29358;SDS011;16347;53.232;6.556;2023-07-22T09:59:27;17.17;;;8.45;;
29358;SDS011;16347;53.232;6.556;2023-07-22T10:01:56;16.90;;;8.52;;
29358;SDS011;16347;53.232;6.556;2023-07-22T10:07:01;17.95;;;8.02;;
29358;SDS011;16347;53.232;6.556;2023-07-22T10:09:30;13.10;;;7.85;;
29358;SDS011;16347;53.232;6.556;2023-07-22T10:12:00;14.63;;;7.43;;
29358;SDS011;16347;53.232;6.556;2023-07-22T10:14:30;18.20;;;7.53;;
29358;SDS011;16347;53.232;6.556;2023-07-22T10:17:01;14.32;;;7.20;;
29358;SDS011;16347;53.232;6.556;2023-07-22T10:19:31;18.25;;;7.35;;
29358;SDS011;16347;53.232;6.556;2023-07-22T10:21:59;14.45;;;7.53;;
29358;SDS011;16347;53.232;6.556;2023-07-22T10:24:28;12.70;;;6.97;;
29358;SDS011;16347;53.232;6.556;2023-07-22T10:26:58;13.10;;;6.90;;
29358;SDS011;16347;53.232;6.556;2023-07-22T10:29:26;17.10;;;8.00;;
29358;SDS011;16347;53.232;6.556;2023-07-22T10:31:54;17.55;;;8.38;;
29358;SDS011;16347;53.232;6.556;2023-07-22T10:34:23;14.05;;;7.28;;
29358;SDS011;16347;53.232;6.556;2023-07-22T10:36:51;18.98;;;7.78;;
29358;SDS011;16347;53.232;6.556;2023-07-22T10:39:26;12.77;;;7.72;;
29358;SDS011;16347;53.232;6.556;2023-07-22T10:42:01;14.65;;;8.00;;
29358;SDS011;16347;53.232;6.556;2023-07-22T10:44:31;11.27;;;6.70;;
29358;SDS011;16347;53.232;6.556;2023-07-22T10:47:00;15.13;;;7.93;;
29358;SDS011;16347;53.232;6.556;2023-07-22T10:49:42;16.80;;;8.30;;
29358;SDS011;16347;53.232;6.556;2023-07-22T10:52:11;13.55;;;7.53;;
29358;SDS011;16347;53.232;6.556;2023-07-22T10:54:40;14.73;;;6.93;;
29358;SDS011;16347;53.232;6.556;2023-07-22T10:57:24;12.13;;;7.10;;
29358;SDS011;16347;53.232;6.556;2023-07-22T10:59:53;14.93;;;6.95;;
29358;SDS011;16347;53.232;6.556;2023-07-22T11:02:23;13.15;;;6.72;;
29358;SDS011;16347;53.232;6.556;2023-07-22T11:04:53;14.63;;;7.07;;
29358;SDS011;16347;53.232;6.556;2023-07-22T11:07:30;14.25;;;6.57;;
29358;SDS011;16347;53.232;6.556;2023-07-22T11:10:10;10.50;;;6.53;;
29358;SDS011;16347;53.232;6.556;2023-07-22T11:12:44;10.20;;;6.18;;
29358;SDS011;16347;53.232;6.556;2023-07-22T11:15:14;12.40;;;5.32;;
29358;SDS011;16347;53.232;6.556;2023-07-22T11:17:44;8.68;;;5.90;;
29358;SDS011;16347;53.232;6.556;2023-07-22T11:20:12;10.38;;;5.32;;
29358;SDS011;16347;53.232;6.556;2023-07-22T11:22:40;10.82;;;4.47;;
29358;SDS011;16347;53.232;6.556;2023-07-22T11:25:08;7.60;;;4.55;;
29358;SDS011;16347;53.232;6.556;2023-07-22T11:27:36;8.23;;;5.30;;
29358;SDS011;16347;53.232;6.556;2023-07-22T11:30:06;8.02;;;4.47;;
29358;SDS011;16347;53.232;6.556;2023-07-22T11:35:09;10.23;;;5.25;;
29358;SDS011;16347;53.232;6.556;2023-07-22T11:37:37;6.88;;;4.88;;
29358;SDS011;16347;53.232;6.556;2023-07-22T11:40:05;6.40;;;4.68;;
29358;SDS011;16347;53.232;6.556;2023-07-22T11:42:34;10.15;;;5.20;;
29358;SDS011;16347;53.232;6.556;2023-07-22T11:45:03;10.85;;;5.30;;
29358;SDS011;16347;53.232;6.556;2023-07-22T11:47:34;8.75;;;5.07;;
29358;SDS011;16347;53.232;6.556;2023-07-22T11:50:02;8.55;;;5.60;;
29358;SDS011;16347;53.232;6.556;2023-07-22T11:52:32;8.95;;;5.90;;
29358;SDS011;16347;53.232;6.556;2023-07-22T11:55:02;15.55;;;7.57;;
29358;SDS011;16347;53.232;6.556;2023-07-22T11:57:30;11.15;;;7.45;;
29358;SDS011;16347;53.232;6.556;2023-07-22T11:59:58;12.05;;;7.57;;
29358;SDS011;16347;53.232;6.556;2023-07-22T12:02:27;12.18;;;7.28;;
29358;SDS011;16347;53.232;6.556;2023-07-22T12:05:00;16.50;;;8.40;;
29358;SDS011;16347;53.232;6.556;2023-07-22T12:07:29;18.40;;;8.95;;
29358;SDS011;16347;53.232;6.556;2023-07-22T12:09:58;12.35;;;8.70;;
29358;SDS011;16347;53.232;6.556;2023-07-22T12:12:31;14.85;;;8.93;;
29358;SDS011;16347;53.232;6.556;2023-07-22T12:15:01;17.33;;;9.13;;
29358;SDS011;16347;53.232;6.556;2023-07-22T12:17:43;16.67;;;8.15;;
29358;SDS011;16347;53.232;6.556;2023-07-22T12:20:14;14.52;;;8.85;;
29358;SDS011;16347;53.232;6.556;2023-07-22T12:22:42;14.77;;;8.35;;
29358;SDS011;16347;53.232;6.556;2023-07-22T12:25:10;14.27;;;8.43;;
29358;SDS011;16347;53.232;6.556;2023-07-22T12:27:38;15.50;;;8.68;;
29358;SDS011;16347;53.232;6.556;2023-07-22T12:30:07;13.60;;;8.55;;
29358;SDS011;16347;53.232;6.556;2023-07-22T12:32:35;20.00;;;8.98;;
29358;SDS011;16347;53.232;6.556;2023-07-22T12:35:04;18.73;;;9.02;;
29358;SDS011;16347;53.232;6.556;2023-07-22T12:37:33;13.45;;;8.77;;
29358;SDS011;16347;53.232;6.556;2023-07-22T12:40:02;17.38;;;9.20;;
29358;SDS011;16347;53.232;6.556;2023-07-22T12:42:35;17.73;;;9.50;;
29358;SDS011;16347;53.232;6.556;2023-07-22T12:45:04;15.38;;;9.60;;
29358;SDS011;16347;53.232;6.556;2023-07-22T12:47:33;15.30;;;9.68;;
29358;SDS011;16347;53.232;6.556;2023-07-22T12:50:01;14.50;;;9.77;;
29358;SDS011;16347;53.232;6.556;2023-07-22T12:52:29;15.88;;;10.30;;
29358;SDS011;16347;53.232;6.556;2023-07-22T12:54:58;18.50;;;10.50;;
29358;SDS011;16347;53.232;6.556;2023-07-22T12:57:26;14.95;;;9.90;;
29358;SDS011;16347;53.232;6.556;2023-07-22T12:59:54;17.38;;;10.77;;
29358;SDS011;16347;53.232;6.556;2023-07-22T13:02:22;15.63;;;10.00;;
29358;SDS011;16347;53.232;6.556;2023-07-22T13:04:51;18.70;;;10.88;;
29358;SDS011;16347;53.232;6.556;2023-07-22T13:07:20;18.35;;;11.30;;
29358;SDS011;16347;53.232;6.556;2023-07-22T13:09:48;15.77;;;10.70;;
29358;SDS011;16347;53.232;6.556;2023-07-22T13:12:19;15.20;;;10.02;;
29358;SDS011;16347;53.232;6.556;2023-07-22T13:14:47;17.33;;;9.75;;
29358;SDS011;16347;53.232;6.556;2023-07-22T13:17:15;12.77;;;8.57;;
29358;SDS011;16347;53.232;6.556;2023-07-22T13:19:43;12.90;;;8.60;;
29358;SDS011;16347;53.232;6.556;2023-07-22T13:22:11;11.93;;;8.90;;
29358;SDS011;16347;53.232;6.556;2023-07-22T13:24:39;15.73;;;9.35;;
29358;SDS011;16347;53.232;6.556;2023-07-22T13:27:07;18.10;;;10.25;;
29358;SDS011;16347;53.232;6.556;2023-07-22T13:29:37;14.77;;;9.13;;
29358;SDS011;16347;53.232;6.556;2023-07-22T13:32:05;15.77;;;9.70;;
29358;SDS011;16347;53.232;6.556;2023-07-22T13:34:33;19.33;;;9.73;;
29358;SDS011;16347;53.232;6.556;2023-07-22T13:37:02;18.15;;;9.63;;
29358;SDS011;16347;53.232;6.556;2023-07-22T13:39:30;18.48;;;9.93;;
29358;SDS011;16347;53.232;6.556;2023-07-22T13:41:58;15.50;;;9.27;;
29358;SDS011;16347;53.232;6.556;2023-07-22T13:44:26;13.23;;;8.77;;
29358;SDS011;16347;53.232;6.556;2023-07-22T13:46:56;16.10;;;10.40;;
29358;SDS011;16347;53.232;6.556;2023-07-22T13:49:23;14.60;;;9.43;;
29358;SDS011;16347;53.232;6.556;2023-07-22T13:51:51;19.48;;;11.20;;
29358;SDS011;16347;53.232;6.556;2023-07-22T13:54:19;15.60;;;10.85;;
29358;SDS011;16347;53.232;6.556;2023-07-22T13:56:47;15.68;;;11.75;;
29358;SDS011;16347;53.232;6.556;2023-07-22T13:59:15;19.35;;;10.85;;
29358;SDS011;16347;53.232;6.556;2023-07-22T14:01:44;17.10;;;10.80;;
29358;SDS011;16347;53.232;6.556;2023-07-22T14:04:13;18.88;;;11.18;;
29358;SDS011;16347;53.232;6.556;2023-07-22T14:06:41;13.95;;;10.35;;
29358;SDS011;16347;53.232;6.556;2023-07-22T14:09:09;14.18;;;10.40;;
29358;SDS011;16347;53.232;6.556;2023-07-22T14:11:37;16.77;;;11.13;;
29358;SDS011;16347;53.232;6.556;2023-07-22T14:14:08;16.73;;;9.95;;
29358;SDS011;16347;53.232;6.556;2023-07-22T14:16:36;15.85;;;10.35;;
29358;SDS011;16347;53.232;6.556;2023-07-22T14:19:03;15.48;;;10.57;;
29358;SDS011;16347;53.232;6.556;2023-07-22T14:21:33;18.70;;;10.40;;
29358;SDS011;16347;53.232;6.556;2023-07-22T14:24:00;19.63;;;10.77;;
29358;SDS011;16347;53.232;6.556;2023-07-22T14:26:29;14.95;;;10.20;;
29358;SDS011;16347;53.232;6.556;2023-07-22T14:28:57;19.83;;;10.73;;
29358;SDS011;16347;53.232;6.556;2023-07-22T14:31:25;15.95;;;10.18;;
29358;SDS011;16347;53.232;6.556;2023-07-22T14:33:53;16.17;;;9.70;;
29358;SDS011;16347;53.232;6.556;2023-07-22T14:36:21;13.45;;;10.15;;
29358;SDS011;16347;53.232;6.556;2023-07-22T14:38:51;17.30;;;9.73;;
29358;SDS011;16347;53.232;6.556;2023-07-22T14:41:20;16.63;;;10.15;;
29358;SDS011;16347;53.232;6.556;2023-07-22T14:43:48;19.23;;;10.35;;
29358;SDS011;16347;53.232;6.556;2023-07-22T14:46:16;17.08;;;9.27;;
29358;SDS011;16347;53.232;6.556;2023-07-22T14:48:44;13.45;;;10.05;;
29358;SDS011;16347;53.232;6.556;2023-07-22T14:51:12;18.05;;;10.02;;